Time;durP1;ratioP1;P1;durP2;ratioP2;P2;SDS_P1;SDS_P2;PMS_P1;PMS_P2;Temp;Humidity;BMP_temperature;BMP_pressure;BME280_temperature;BME280_humidity;BME280_pressure;Samples;Min_cycle;Max_cycle;Signal;HPM_P1;HPM_P2
2021/08/16 00:02:18;;;;;;;;;;;;;;;24.82;47.22;100819.19;5079028;28;975;-34
2021/08/16 00:04:43;;;;;;;;;;;;;;;22.20;51.27;100803.34;5079529;28;774;-43
2021/08/16 00:07:08;;;;;;;;;;;;;;;23.56;50.01;100804.38;5079253;28;823;-33
2021/08/16 00:09:34;;;;;;;;;;;;;;;24.89;46.12;100809.44;5078682;28;799;-42
2021/08/16 00:11:59;;;;;;;;;;;;;;;22.16;50.84;100810.00;5078857;28;1957;-35
2021/08/16 00:14:24;;;;;;;;;;;;;;;23.86;49.01;100801.34;5079114;28;748;-33
2021/08/16 00:16:50;;;;;;;;;;;;;;;24.80;47.25;100807.75;5084616;28;947;-34
2021/08/16 00:19:15;;;;;;;;;;;;;;;25.24;45.89;100805.78;5099393;28;811;-36
2021/08/16 00:21:40;;;;;;;;;;;;;;;25.06;46.73;100804.09;5099332;28;764;-34
2021/08/16 00:24:05;;;;;;;;;;;;;;;22.24;52.96;100794.88;5089762;28;1090;-33
2021/08/16 00:26:31;;;;;;;;;;;;;;;24.36;47.56;100795.41;5078596;28;881;-42
2021/08/16 00:28:59;;;;;;;;;;;;;;;24.76;47.55;100793.78;5078775;28;805;-31
2021/08/16 00:31:25;;;;;;;;;;;;;;;22.74;52.36;100795.44;5078567;28;1905;-42
2021/08/16 00:33:50;;;;;;;;;;;;;;;24.54;47.03;100803.34;5078445;28;744;-32
2021/08/16 00:36:15;;;;;;;;;;;;;;;24.86;47.28;100795.50;5078343;28;849;-33
2021/08/16 00:38:40;;;;;;;;;;;;;;;25.55;44.71;100797.84;5078433;28;763;-39
2021/08/16 00:41:06;;;;;;;;;;;;;;;22.51;50.46;100787.81;5078678;28;851;-33
2021/08/16 00:43:31;;;;;;;;;;;;;;;23.47;50.19;100791.91;5077040;28;915;-41
2021/08/16 00:45:56;;;;;;;;;;;;;;;24.90;46.14;100791.44;5078249;28;748;-31
2021/08/16 00:48:22;;;;;;;;;;;;;;;22.66;49.09;100778.41;5077408;28;1302;-33
2021/08/16 00:50:47;;;;;;;;;;;;;;;23.86;48.88;100782.53;5078725;28;835;-30
2021/08/16 00:53:13;;;;;;;;;;;;;;;24.89;46.52;100784.41;5078107;28;1914;-43
2021/08/16 00:55:38;;;;;;;;;;;;;;;25.36;45.25;100785.56;5077992;28;779;-33
2021/08/16 00:58:04;;;;;;;;;;;;;;;25.03;47.06;100783.75;5078143;28;827;-42
2021/08/16 01:00:29;;;;;;;;;;;;;;;22.42;52.63;100783.34;5076381;28;908;-35
2021/08/16 01:02:54;;;;;;;;;;;;;;;24.51;47.15;100787.50;5077540;28;962;-43
2021/08/16 01:05:19;;;;;;;;;;;;;;;24.60;47.93;100783.84;5078352;28;807;-33
2021/08/16 01:07:45;;;;;;;;;;;;;;;22.81;51.85;100773.38;5076427;28;1199;-40
2021/08/16 01:10:11;;;;;;;;;;;;;;;24.51;47.04;100774.06;5076951;28;833;-35
2021/08/16 01:12:36;;;;;;;;;;;;;;;24.82;47.33;100776.16;5078063;28;1901;-34
2021/08/16 01:15:02;;;;;;;;;;;;;;;23.02;51.77;100766.88;5077671;28;771;-33
2021/08/16 01:17:28;;;;;;;;;;;;;;;24.62;46.70;100771.09;5077915;28;1010;-34
2021/08/16 01:19:53;;;;;;;;;;;;;;;24.84;46.83;100774.09;5077820;28;726;-32
2021/08/16 01:22:19;;;;;;;;;;;;;;;23.19;51.04;100770.53;5078071;28;859;-33
2021/08/16 01:24:44;;;;;;;;;;;;;;;24.66;46.45;100768.88;5091683;28;1279;-30
2021/08/16 01:27:09;;;;;;;;;;;;;;;24.91;46.48;100767.09;5097357;28;1129;-34
2021/08/16 01:29:35;;;;;;;;;;;;;;;25.29;45.93;100769.25;5097793;28;770;-43
2021/08/16 01:32:00;;;;;;;;;;;;;;;21.63;52.40;100760.41;5096686;28;1934;-28
2021/08/16 01:34:25;;;;;;;;;;;;;;;23.97;48.58;100763.44;5097957;28;858;-34
2021/08/16 01:36:50;;;;;;;;;;;;;;;24.96;45.96;100761.19;5097777;28;870;-38
2021/08/16 01:39:16;;;;;;;;;;;;;;;25.54;44.39;100755.75;5097219;28;813;-33
2021/08/16 01:41:41;;;;;;;;;;;;;;;25.21;43.43;100757.69;5097303;28;874;-41
2021/08/16 01:44:11;;;;;;;;;;;;;;;22.67;52.33;100759.50;5097690;28;720;-40
2021/08/16 01:46:36;;;;;;;;;;;;;;;24.52;46.98;100759.63;5096356;28;1012;-32
2021/08/16 01:49:01;;;;;;;;;;;;;;;24.66;47.49;100750.06;5097194;28;1194;-42
2021/08/16 01:51:26;;;;;;;;;;;;;;;23.08;51.65;100747.44;5097416;28;1913;-42
2021/08/16 01:53:52;;;;;;;;;;;;;;;24.58;46.74;100753.56;5097027;28;817;-42
2021/08/16 01:56:20;;;;;;;;;;;;;;;25.03;46.31;100751.47;5097206;28;774;-33
2021/08/16 01:58:45;;;;;;;;;;;;;;;25.28;45.80;100759.50;5097440;28;799;-43
2021/08/16 02:01:10;;;;;;;;;;;;;;;21.89;51.85;100753.56;5096138;28;1037;-37
2021/08/16 02:03:36;;;;;;;;;;;;;;;24.01;48.45;100750.53;5096828;28;776;-33
2021/08/16 02:06:01;;;;;;;;;;;;;;;24.92;46.87;100762.56;5096976;28;752;-41
2021/08/16 02:08:26;;;;;;;;;;;;;;;22.31;50.85;100743.34;5097018;28;759;-36
2021/08/16 02:10:51;;;;;;;;;;;;;;;24.38;47.23;100756.56;5096918;28;783;-42
2021/08/16 02:13:17;;;;;;;;;;;;;;;24.83;47.38;100757.16;5097443;28;1972;-36
2021/08/16 02:15:42;;;;;;;;;;;;;;;22.79;51.22;100746.72;5096886;28;796;-42
2021/08/16 02:18:07;;;;;;;;;;;;;;;24.56;46.40;100752.91;5095863;28;954;-37
2021/08/16 02:20:33;;;;;;;;;;;;;;;24.78;47.02;100751.41;5096947;28;774;-43
2021/08/16 02:22:58;;;;;;;;;;;;;;;22.95;51.76;100742.50;5095915;28;815;-33
2021/08/16 02:25:23;;;;;;;;;;;;;;;24.65;45.84;100749.22;5076980;28;1099;-43
2021/08/16 02:27:49;;;;;;;;;;;;;;;24.89;45.95;100750.25;5076932;28;792;-42
2021/08/16 02:30:14;;;;;;;;;;;;;;;25.48;43.56;100744.81;5076483;28;858;-34
2021/08/16 02:32:40;;;;;;;;;;;;;;;22.19;50.42;100740.06;5076278;28;1976;-33
2021/08/16 02:35:05;;;;;;;;;;;;;;;23.77;48.34;100753.97;5076741;28;839;-43
2021/08/16 02:37:31;;;;;;;;;;;;;;;24.94;44.96;100756.00;5076932;28;700;-36
2021/08/16 02:39:56;;;;;;;;;;;;;;;22.26;49.23;100763.41;5076307;28;768;-42
2021/08/16 02:42:21;;;;;;;;;;;;;;;24.36;46.07;100763.13;5076605;28;812;-42
2021/08/16 02:44:46;;;;;;;;;;;;;;;24.76;46.07;100760.66;5076196;28;779;-30
2021/08/16 02:47:12;;;;;;;;;;;;;;;25.33;43.87;100758.16;5076302;28;958;-42
2021/08/16 02:49:37;;;;;;;;;;;;;;;25.19;44.81;100761.38;5076601;28;819;-34
2021/08/16 02:52:03;;;;;;;;;;;;;;;22.47;51.34;100750.75;5076240;28;1988;-36
2021/08/16 02:54:29;;;;;;;;;;;;;;;24.09;42.99;100750.56;5075939;28;847;-34
2021/08/16 02:56:54;;;;;;;;;;;;;;;24.55;41.98;100761.97;5076199;28;760;-38
2021/08/16 02:59:19;;;;;;;;;;;;;;;24.97;41.19;100768.28;5076755;28;780;-32
2021/08/16 03:01:44;;;;;;;;;;;;;;;24.22;44.75;100757.38;5075652;28;978;-35
2021/08/16 03:04:10;;;;;;;;;;;;;;;23.24;47.36;100760.13;5076145;28;843;-35
2021/08/16 03:06:35;;;;;;;;;;;;;;;24.29;44.47;100757.56;5076211;28;815;-34
2021/08/16 03:09:00;;;;;;;;;;;;;;;24.65;44.79;100762.69;5076089;28;879;-35
2021/08/16 03:11:26;;;;;;;;;;;;;;;24.01;45.19;100766.66;5075914;28;1971;-35
2021/08/16 03:13:51;;;;;;;;;;;;;;;23.21;47.38;100765.81;5076232;28;813;-45
2021/08/16 03:16:17;;;;;;;;;;;;;;;24.52;44.54;100773.06;5075616;28;994;-34
2021/08/16 03:18:42;;;;;;;;;;;;;;;24.07;45.58;100768.69;5076390;28;756;-47
2021/08/16 03:21:08;;;;;;;;;;;;;;;24.31;45.83;100771.66;5075906;28;748;-34
2021/08/16 03:23:33;;;;;;;;;;;;;;;23.77;47.04;100775.44;5079651;28;1103;-45
2021/08/16 03:25:58;;;;;;;;;;;;;;;23.76;47.13;100768.38;5096742;28;748;-33
2021/08/16 03:28:26;;;;;;;;;;;;;;;23.83;46.46;100772.13;5095945;28;859;-34
2021/08/16 03:30:51;;;;;;;;;;;;;;;24.17;43.47;100775.84;5096195;28;799;-33
2021/08/16 03:33:16;;;;;;;;;;;;;;;24.13;41.18;100767.22;5095664;28;1968;-37
2021/08/16 03:35:42;;;;;;;;;;;;;;;24.41;40.17;100760.75;5099652;28;808;-35
2021/08/16 03:38:07;;;;;;;;;;;;;;;24.81;40.31;100763.69;5099820;28;736;-35
2021/08/16 03:40:32;;;;;;;;;;;;;;;24.48;40.36;100769.88;5100007;28;858;-34
2021/08/16 03:42:58;;;;;;;;;;;;;;;24.48;41.15;100769.00;5099779;28;759;-34
2021/08/16 03:45:23;;;;;;;;;;;;;;;24.21;41.48;100767.28;5099885;28;926;-45
2021/08/16 03:47:48;;;;;;;;;;;;;;;24.39;42.70;100776.25;5098501;28;1031;-35
2021/08/16 03:50:14;;;;;;;;;;;;;;;24.64;42.41;100777.13;5099478;28;839;-45
2021/08/16 03:52:39;;;;;;;;;;;;;;;23.55;43.42;100777.69;5098973;28;1910;-35
2021/08/16 03:55:05;;;;;;;;;;;;;;;23.40;46.12;100777.41;5094445;28;1360;-36
2021/08/16 03:57:30;;;;;;;;;;;;;;;24.57;42.03;100776.94;5079195;28;1420;-37
2021/08/16 03:59:55;;;;;;;;;;;;;;;24.89;41.53;100777.16;5083541;28;1328;-41
2021/08/16 04:02:21;;;;;;;;;;;;;;;24.99;41.96;100776.19;5083563;28;1304;-36
2021/08/16 04:04:46;;;;;;;;;;;;;;;21.40;49.41;100766.09;5086229;28;1320;-41
2021/08/16 04:07:12;;;;;;;;;;;;;;;23.32;47.24;100778.16;5090100;28;1353;-36
2021/08/16 04:09:37;;;;;;;;;;;;;;;24.39;44.71;100773.56;5085387;28;1364;-40
2021/08/16 04:12:03;;;;;;;;;;;;;;;24.87;43.52;100781.88;5083169;28;2043;-35
2021/08/16 04:14:28;;;;;;;;;;;;;;;24.86;44.78;100776.66;5090623;28;1412;-35
2021/08/16 04:16:53;;;;;;;;;;;;;;;21.01;52.24;100777.69;5082166;28;1494;-33
2021/08/16 04:19:19;;;;;;;;;;;;;;;23.64;47.63;100782.09;5094521;28;1372;-42
2021/08/16 04:21:44;;;;;;;;;;;;;;;24.69;46.29;100784.72;5085394;28;1383;-43
2021/08/16 04:24:09;;;;;;;;;;;;;;;21.36;51.73;100771.88;5087357;28;1391;-43
2021/08/16 04:26:35;;;;;;;;;;;;;;;22.91;49.89;100776.81;5090966;28;1285;-42
2021/08/16 04:29:00;;;;;;;;;;;;;;;24.27;45.92;100771.16;5095958;28;1416;-43
2021/08/16 04:31:25;;;;;;;;;;;;;;;22.28;48.99;100773.97;5085745;28;1898;-40
2021/08/16 04:33:50;;;;;;;;;;;;;;;22.47;52.39;100782.91;5085706;28;1365;-41
2021/08/16 04:36:16;;;;;;;;;;;;;;;24.57;45.87;100781.50;5091107;28;1436;-40
2021/08/16 04:38:41;;;;;;;;;;;;;;;23.32;46.22;100779.00;5092252;28;1494;-42
2021/08/16 04:41:06;;;;;;;;;;;;;;;21.98;53.81;100774.13;5086425;28;1538;-41
2021/08/16 04:43:32;;;;;;;;;;;;;;;24.39;47.71;100784.31;5085606;28;1372;-41
2021/08/16 04:45:57;;;;;;;;;;;;;;;20.99;54.27;100771.63;5084104;28;1466;-41
2021/08/16 04:48:22;;;;;;;;;;;;;;;23.05;51.29;100774.59;5074996;28;1052;-40
2021/08/16 04:50:47;;;;;;;;;;;;;;;24.20;50.22;100772.81;5078228;28;756;-39
2021/08/16 04:53:13;;;;;;;;;;;;;;;25.04;45.78;100773.84;5076678;28;1918;-39
2021/08/16 04:55:38;;;;;;;;;;;;;;;25.27;46.04;100776.69;5077508;28;860;-40
2021/08/16 04:58:03;;;;;;;;;;;;;;;25.89;43.50;100781.63;5078100;28;762;-42
2021/08/16 05:00:29;;;;;;;;;;;;;;;25.99;43.27;100784.13;5077680;28;851;-40
2021/08/16 05:02:54;;;;;;;;;;;;;;;25.76;45.72;100795.63;5077375;28;1314;-37
2021/08/16 05:05:22;;;;;;;;;;;;;;;26.07;43.17;100791.31;5084350;28;833;-36
2021/08/16 05:07:47;;;;;;;;;;;;;;;26.00;43.13;100801.97;5077663;28;817;-39
2021/08/16 05:10:13;;;;;;;;;;;;;;;26.28;43.54;100801.50;5077710;28;738;-40
2021/08/16 05:12:38;;;;;;;;;;;;;;;26.29;42.22;100803.19;5077470;28;1901;-39
2021/08/16 05:15:04;;;;;;;;;;;;;;;26.22;43.85;100807.59;5076961;28;776;-41
2021/08/16 05:17:29;;;;;;;;;;;;;;;26.22;42.40;100803.06;5076691;28;951;-37
2021/08/16 05:19:54;;;;;;;;;;;;;;;26.31;42.66;100805.72;5076995;28;784;-40
2021/08/16 05:22:19;;;;;;;;;;;;;;;26.48;43.12;100809.19;5077410;28;1027;-39
2021/08/16 05:24:45;;;;;;;;;;;;;;;26.48;41.98;100811.88;5091088;28;1177;-39
2021/08/16 05:27:10;;;;;;;;;;;;;;;26.58;42.62;100807.09;5098152;28;780;-38
2021/08/16 05:29:35;;;;;;;;;;;;;;;26.39;41.63;100808.41;5097752;28;751;-38
2021/08/16 05:32:01;;;;;;;;;;;;;;;26.55;41.94;100812.84;5094619;28;1909;-38
2021/08/16 05:34:26;;;;;;;;;;;;;;;26.78;42.78;100814.72;5097211;28;784;-39
2021/08/16 05:36:51;;;;;;;;;;;;;;;26.78;41.90;100812.03;5097014;28;819;-38
2021/08/16 05:39:17;;;;;;;;;;;;;;;26.78;41.80;100810.19;5096328;28;1374;-40
2021/08/16 05:41:42;;;;;;;;;;;;;;;26.56;41.94;100809.13;5097593;28;787;-40
2021/08/16 05:44:07;;;;;;;;;;;;;;;26.69;41.92;100811.25;5096605;28;816;-38
2021/08/16 05:46:33;;;;;;;;;;;;;;;26.74;43.75;100814.25;5089637;28;1325;-38
2021/08/16 05:48:58;;;;;;;;;;;;;;;26.74;41.89;100808.84;5097267;28;1031;-39
2021/08/16 05:51:23;;;;;;;;;;;;;;;26.80;41.38;100811.84;5091129;28;1914;-39
2021/08/16 05:53:48;;;;;;;;;;;;;;;26.89;41.41;100817.00;5076755;28;835;-39
2021/08/16 05:56:14;;;;;;;;;;;;;;;26.72;41.35;100818.16;5076078;28;832;-38
2021/08/16 05:58:39;;;;;;;;;;;;;;;26.95;43.54;100818.16;5076900;28;745;-38
2021/08/16 06:01:04;;;;;;;;;;;;;;;26.86;41.50;100817.38;5081793;28;1312;-39
2021/08/16 06:03:30;;;;;;;;;;;;;;;26.38;42.81;100822.88;5085683;28;1150;-40
2021/08/16 06:05:55;;;;;;;;;;;;;;;25.45;46.71;100816.03;5088235;28;862;-42
2021/08/16 06:08:20;;;;;;;;;;;;;;;26.30;42.63;100812.97;5076424;28;850;-41
2021/08/16 06:10:45;;;;;;;;;;;;;;;26.70;42.06;100820.19;5076609;28;818;-39
2021/08/16 06:13:11;;;;;;;;;;;;;;;26.91;42.00;100814.13;5076450;28;1913;-39
2021/08/16 06:15:36;;;;;;;;;;;;;;;23.87;49.22;100819.16;5076373;28;843;-40
2021/08/16 06:18:01;;;;;;;;;;;;;;;26.09;43.92;100822.47;5092460;28;954;-38
2021/08/16 06:20:27;;;;;;;;;;;;;;;26.75;44.35;100821.34;5096861;28;751;-40
2021/08/16 06:22:52;;;;;;;;;;;;;;;26.92;41.58;100826.63;5096280;28;840;-39
2021/08/16 06:25:17;;;;;;;;;;;;;;;26.49;42.33;100829.75;5077538;28;933;-40
2021/08/16 06:27:43;;;;;;;;;;;;;;;25.60;46.74;100823.41;5076383;28;777;-38
2021/08/16 06:30:08;;;;;;;;;;;;;;;26.51;42.79;100825.84;5076556;28;818;-40
2021/08/16 06:32:34;;;;;;;;;;;;;;;24.86;46.28;100831.28;5076451;28;1913;-37
2021/08/16 06:35:00;;;;;;;;;;;;;;;25.95;44.49;100834.84;5075134;28;863;-40
2021/08/16 06:37:25;;;;;;;;;;;;;;;26.64;44.32;100827.97;5076528;28;744;-36
2021/08/16 06:39:51;;;;;;;;;;;;;;;23.82;49.06;100825.00;5076317;28;787;-40
2021/08/16 06:42:16;;;;;;;;;;;;;;;25.98;44.20;100829.09;5076535;28;814;-37
2021/08/16 06:44:41;;;;;;;;;;;;;;;26.53;45.29;100839.16;5074743;28;858;-36
2021/08/16 06:47:06;;;;;;;;;;;;;;;24.74;48.51;100833.44;5075808;28;958;-37
2021/08/16 06:49:32;;;;;;;;;;;;;;;26.28;43.39;100833.84;5083247;28;1408;-39
2021/08/16 06:51:57;;;;;;;;;;;;;;;26.75;42.44;100831.28;5077672;28;1910;-35
2021/08/16 06:54:23;;;;;;;;;;;;;;;25.35;47.67;100835.06;5096225;28;823;-39
2021/08/16 06:56:49;;;;;;;;;;;;;;;26.43;43.00;100830.44;5096454;28;791;-38
2021/08/16 06:59:14;;;;;;;;;;;;;;;24.93;46.16;100834.19;5096263;28;863;-36
2021/08/16 07:01:40;;;;;;;;;;;;;;;26.02;44.30;100832.28;5094657;28;824;-40
2021/08/16 07:04:05;;;;;;;;;;;;;;;24.93;45.47;100834.19;5096129;28;843;-39
2021/08/16 07:06:30;;;;;;;;;;;;;;;25.85;44.40;100837.72;5083085;28;1372;-36
2021/08/16 07:08:56;;;;;;;;;;;;;;;25.00;45.66;100839.75;5090281;28;740;-35
2021/08/16 07:11:21;;;;;;;;;;;;;;;25.74;45.13;100840.78;5088733;28;814;-38
2021/08/16 07:13:46;;;;;;;;;;;;;;;25.54;44.26;100843.81;5089414;28;1964;-37
2021/08/16 07:16:11;;;;;;;;;;;;;;;25.67;46.03;100846.84;5098816;28;949;-39
2021/08/16 07:18:37;;;;;;;;;;;;;;;26.25;43.18;100836.91;5100408;28;779;-37
2021/08/16 07:21:02;;;;;;;;;;;;;;;25.71;45.69;100841.94;5100024;28;933;-41
2021/08/16 07:23:28;;;;;;;;;;;;;;;26.28;43.53;100842.78;5096413;28;1384;-37
2021/08/16 07:25:54;;;;;;;;;;;;;;;25.39;47.40;100852.56;5080891;28;1221;-39
2021/08/16 07:28:19;;;;;;;;;;;;;;;26.47;42.59;100842.56;5087298;28;1336;-37
2021/08/16 07:30:44;;;;;;;;;;;;;;;25.56;46.48;100848.00;5084446;28;1387;-38
2021/08/16 07:33:10;;;;;;;;;;;;;;;26.57;42.90;100845.91;5091805;28;1963;-39
2021/08/16 07:35:35;;;;;;;;;;;;;;;24.96;48.44;100855.38;5090795;28;1222;-34
2021/08/16 07:38:00;;;;;;;;;;;;;;;26.38;43.55;100844.47;5081521;28;1289;-37
2021/08/16 07:40:25;;;;;;;;;;;;;;;24.75;48.57;100843.22;5083674;28;1340;-40
2021/08/16 07:42:51;;;;;;;;;;;;;;;26.35;43.10;100842.97;5086975;28;1534;-38
2021/08/16 07:45:16;;;;;;;;;;;;;;;23.60;49.94;100846.03;5088082;28;764;-37
2021/08/16 07:47:41;;;;;;;;;;;;;;;26.07;44.19;100851.47;5082749;28;1198;-38
2021/08/16 07:50:09;;;;;;;;;;;;;;;24.15;48.44;100851.22;5087940;28;731;-38
2021/08/16 07:52:35;;;;;;;;;;;;;;;25.98;44.47;100852.50;5078944;28;1975;-39
2021/08/16 07:55:00;;;;;;;;;;;;;;;24.86;46.78;100850.13;5079205;28;771;-40
2021/08/16 07:57:26;;;;;;;;;;;;;;;25.53;46.76;100848.34;5079075;28;799;-38
2021/08/16 07:59:51;;;;;;;;;;;;;;;26.68;42.43;100850.03;5079092;28;816;-39
2021/08/16 08:02:16;;;;;;;;;;;;;;;25.00;48.33;100853.22;5092055;28;1463;-39
2021/08/16 08:04:42;;;;;;;;;;;;;;;26.48;43.09;100844.25;5083856;28;1427;-39
2021/08/16 08:07:07;;;;;;;;;;;;;;;23.73;50.08;100847.44;5094086;28;1449;-33
2021/08/16 08:09:32;;;;;;;;;;;;;;;26.12;44.45;100835.63;5082985;28;1380;-39
2021/08/16 08:11:58;;;;;;;;;;;;;;;24.05;48.66;100835.22;5087880;28;1897;-39
2021/08/16 08:14:24;;;;;;;;;;;;;;;25.74;45.48;100848.88;5097137;28;775;-38
2021/08/16 08:16:49;;;;;;;;;;;;;;;25.62;44.69;100846.50;5083954;28;1404;-36
2021/08/16 08:19:14;;;;;;;;;;;;;;;25.52;47.26;100845.81;5078855;28;780;-36
2021/08/16 08:21:40;;;;;;;;;;;;;;;26.62;42.91;100843.50;5092599;28;839;-37
2021/08/16 08:24:05;;;;;;;;;;;;;;;24.46;49.12;100847.16;5087306;28;1127;-37
2021/08/16 08:26:30;;;;;;;;;;;;;;;26.34;43.90;100843.16;5098408;28;862;-37
2021/08/16 08:28:55;;;;;;;;;;;;;;;22.98;50.11;100724.25;5087174;28;1251;-37
2021/08/16 08:31:21;;;;;;;;;;;;;;;26.13;44.08;100841.84;5088076;28;1560;-38
2021/08/16 08:33:46;;;;;;;;;;;;;;;24.41;48.26;100841.44;5082676;28;1967;-37
2021/08/16 08:36:11;;;;;;;;;;;;;;;25.91;45.60;100839.72;5087149;28;1239;-40
2021/08/16 08:38:36;;;;;;;;;;;;;;;25.89;44.40;100840.91;5084983;28;867;-37
2021/08/16 08:41:02;;;;;;;;;;;;;;;25.42;47.52;100838.75;5089820;28;815;-36
2021/08/16 08:43:28;;;;;;;;;;;;;;;26.70;43.21;100833.66;5090393;28;1321;-37
2021/08/16 08:45:53;;;;;;;;;;;;;;;24.25;50.02;100831.47;5081625;28;1297;-36
2021/08/16 08:48:18;;;;;;;;;;;;;;;26.37;43.94;100832.84;5087792;28;1242;-38
2021/08/16 08:50:46;;;;;;;;;;;;;;;23.97;49.58;100832.50;5098276;28;875;-37
2021/08/16 08:53:11;;;;;;;;;;;;;;;25.90;45.73;100829.13;5087227;28;1968;-38
2021/08/16 08:55:37;;;;;;;;;;;;;;;25.27;45.88;100827.84;5087743;28;1565;-36
2021/08/16 08:58:02;;;;;;;;;;;;;;;25.22;48.19;100829.34;5094046;28;822;-37
2021/08/16 09:00:27;;;;;;;;;;;;;;;26.60;43.65;100829.34;5077985;28;842;-38
2021/08/16 09:02:56;;;;;;;;;;;;;;;23.93;50.57;100831.09;5092678;28;904;-37
2021/08/16 09:05:21;;;;;;;;;;;;;;;26.49;44.18;100837.84;5092898;28;1372;-38
2021/08/16 09:07:47;;;;;;;;;;;;;;;24.12;49.04;100832.72;5094432;28;1320;-37
2021/08/16 09:10:13;;;;;;;;;;;;;;;25.94;45.91;100829.63;5094254;28;1348;-38
2021/08/16 09:12:38;;;;;;;;;;;;;;;25.85;44.95;100831.47;5085619;28;1914;-36
2021/08/16 09:15:12;;;;;;;;;;;;;;;24.98;49.20;100834.53;5083806;28;1356;-37
2021/08/16 09:17:38;;;;;;;;;;;;;;;26.73;42.80;100817.13;5079917;28;1440;-38
2021/08/16 09:20:12;;;;;;;;;;;;;;;23.66;50.18;100825.75;5084938;28;1146;-37
2021/08/16 09:22:38;;;;;;;;;;;;;;;26.25;44.27;100826.97;5083256;28;1542;-38
2021/08/16 09:25:05;;;;;;;;;;;;;;;24.55;47.59;100821.16;5086958;28;1255;-37
2021/08/16 09:27:30;;;;;;;;;;;;;;;25.75;46.38;100821.75;5077839;28;1264;-37
2021/08/16 09:29:55;;;;;;;;;;;;;;;26.94;42.02;100821.91;5079421;28;1502;-38
2021/08/16 09:32:50;;;;;;;;;;;;;;;24.96;48.09;100822.28;5080405;28;1949;-37
2021/08/16 09:35:15;;;;;;;;;;;;;;;26.88;42.46;100817.19;5073352;28;1474;-37
2021/08/16 09:37:41;;;;;;;;;;;;;;;24.18;49.39;100817.81;5093121;28;1321;-37
2021/08/16 09:40:10;;;;;;;;;;;;;;;26.44;43.54;100816.81;5081497;28;1238;-38
2021/08/16 09:42:55;;;;;;;;;;;;;;;24.02;48.73;100811.34;5089706;28;1383;-38
2021/08/16 09:45:27;;;;;;;;;;;;;;;25.91;45.05;100815.47;5077218;28;1209;-39
2021/08/16 09:47:56;;;;;;;;;;;;;;;25.39;45.54;100814.84;5082122;28;1270;-37
2021/08/16 09:50:21;;;;;;;;;;;;;;;25.21;48.27;100819.59;5084455;28;1514;-38
2021/08/16 09:52:46;;;;;;;;;;;;;;;26.76;43.22;100811.38;5086274;28;1902;-41
2021/08/16 09:55:12;;;;;;;;;;;;;;;23.62;51.89;100818.16;5089595;28;1178;-37
2021/08/16 09:57:37;;;;;;;;;;;;;;;26.14;50.42;100808.50;5084066;28;1304;-40
2021/08/16 10:00:03;;;;;;;;;;;;;;;24.93;50.09;100816.22;5079177;28;1250;-38
2021/08/16 10:02:28;;;;;;;;;;;;;;;24.91;53.24;100810.16;5083623;28;1496;-39
2021/08/16 10:04:54;;;;;;;;;;;;;;;26.51;50.32;100808.81;5083816;28;1301;-40
2021/08/16 10:07:19;;;;;;;;;;;;;;;23.67;53.99;100803.25;5085957;28;1415;-40
2021/08/16 10:09:44;;;;;;;;;;;;;;;25.92;50.08;100805.53;5088953;28;1278;-38
2021/08/16 10:12:11;;;;;;;;;;;;;;;25.05;49.79;100797.91;5078632;28;1965;-40
2021/08/16 10:14:37;;;;;;;;;;;;;;;25.12;51.79;100803.44;5079364;28;1394;-40
2021/08/16 10:17:02;;;;;;;;;;;;;;;26.70;45.75;100804.00;5084915;28;1491;-38
2021/08/16 10:19:29;;;;;;;;;;;;;;;23.68;52.51;100793.34;5074843;28;1391;-38
2021/08/16 10:22:01;;;;;;;;;;;;;;;26.16;46.65;100809.13;5075931;28;1556;-39
2021/08/16 10:24:28;;;;;;;;;;;;;;;24.76;49.26;100809.06;5086181;28;1543;-39
2021/08/16 10:27:00;;;;;;;;;;;;;;;25.30;50.30;100797.88;5086505;28;1416;-40
2021/08/16 10:29:26;;;;;;;;;;;;;;;26.87;43.11;100802.03;5081631;28;1185;-40
2021/08/16 10:31:52;;;;;;;;;;;;;;;23.61;52.20;100795.81;5080561;28;1898;-38
2021/08/16 10:34:24;;;;;;;;;;;;;;;26.27;45.37;100799.81;5077780;28;1320;-39
2021/08/16 10:36:56;;;;;;;;;;;;;;;24.29;50.02;100795.19;5083585;28;1389;-39
2021/08/16 10:39:31;;;;;;;;;;;;;;;25.61;48.83;100795.50;5076924;28;1510;-39
2021/08/16 10:42:03;;;;;;;;;;;;;;;26.88;44.24;100798.28;5084799;28;1542;-38
2021/08/16 10:44:35;;;;;;;;;;;;;;;24.13;51.31;100796.78;5086840;28;1518;-37
2021/08/16 10:47:00;;;;;;;;;;;;;;;26.35;45.17;100794.44;5083171;28;1376;-40
2021/08/16 10:49:32;;;;;;;;;;;;;;;23.95;50.61;100788.81;5079887;28;1104;-39
2021/08/16 10:51:57;;;;;;;;;;;;;;;25.26;49.35;100791.13;5081080;28;2244;-41
2021/08/16 10:54:23;;;;;;;;;;;;;;;26.75;44.62;100788.97;5080151;28;749;-40
2021/08/16 10:56:52;;;;;;;;;;;;;;;23.88;51.79;100795.81;5086561;28;1448;-39
2021/08/16 10:59:20;;;;;;;;;;;;;;;26.28;45.58;100794.25;5093894;28;1391;-35
2021/08/16 11:01:46;;;;;;;;;;;;;;;24.52;49.44;100787.38;5093126;28;1221;-34
2021/08/16 11:04:15;;;;;;;;;;;;;;;25.06;49.29;100786.09;5089802;28;1550;-35
2021/08/16 11:06:59;;;;;;;;;;;;;;;26.50;44.46;100777.47;5081230;28;818;-37
2021/08/16 11:09:25;;;;;;;;;;;;;;;24.06;50.58;100780.47;5090417;28;1320;-40
2021/08/16 11:11:54;;;;;;;;;;;;;;;25.93;46.83;100780.25;5096182;28;1965;-36
2021/08/16 11:14:23;;;;;;;;;;;;;;;26.27;44.82;100772.88;5083686;28;1468;-39
2021/08/16 11:16:49;;;;;;;;;;;;;;;24.03;51.04;100769.19;5089149;28;1438;-39
2021/08/16 11:19:14;;;;;;;;;;;;;;;26.40;45.22;100770.47;5093686;28;1384;-39
2021/08/16 11:21:39;;;;;;;;;;;;;;;24.55;48.90;100772.75;5083931;28;827;-37
2021/08/16 11:24:04;;;;;;;;;;;;;;;25.49;48.49;100768.88;5087270;28;1131;-40
2021/08/16 11:26:30;;;;;;;;;;;;;;;26.83;44.72;100768.31;5089785;28;795;-39
2021/08/16 11:29:04;;;;;;;;;;;;;;;24.07;51.00;100768.69;5079339;28;841;-39
2021/08/16 11:31:30;;;;;;;;;;;;;;;26.08;44.85;100771.41;5079910;28;907;-41
2021/08/16 11:34:08;;;;;;;;;;;;;;;25.73;45.22;100767.19;5079904;28;1905;-40
2021/08/16 11:36:33;;;;;;;;;;;;;;;24.86;49.07;100766.72;5080132;28;822;-39
2021/08/16 11:38:59;;;;;;;;;;;;;;;26.71;44.29;100773.31;5079910;28;795;-39
2021/08/16 11:41:28;;;;;;;;;;;;;;;24.49;49.00;100768.84;5079041;28;829;-39
2021/08/16 11:43:53;;;;;;;;;;;;;;;24.97;50.27;100767.44;5079335;28;850;-39
2021/08/16 11:46:20;;;;;;;;;;;;;;;26.89;44.36;100764.91;5079552;28;895;-39
2021/08/16 11:48:49;;;;;;;;;;;;;;;24.04;50.86;100760.97;5079376;28;1068;-39
2021/08/16 11:51:14;;;;;;;;;;;;;;;25.85;48.14;100750.63;5080606;28;1507;-36
2021/08/16 11:53:40;;;;;;;;;;;;;;;27.14;44.18;100751.22;5084320;28;1981;-40
2021/08/16 11:56:06;;;;;;;;;;;;;;;23.61;52.01;100752.88;5088744;28;1249;-40
2021/08/16 11:58:35;;;;;;;;;;;;;;;25.91;44.16;100748.09;5091887;28;1542;-40
2021/08/16 12:01:00;;;;;;;;;;;;;;;26.08;44.66;100748.00;5087388;28;1451;-40
2021/08/16 12:03:25;;;;;;;;;;;;;;;23.58;51.69;100748.66;5088427;28;1297;-41
2021/08/16 12:05:50;;;;;;;;;;;;;;;26.49;45.35;100743.44;5086924;28;790;-36
2021/08/16 12:08:19;;;;;;;;;;;;;;;24.89;47.94;100739.47;5080085;28;1487;-40
2021/08/16 12:10:44;;;;;;;;;;;;;;;24.27;51.12;100736.22;5079743;28;1472;-40
2021/08/16 12:13:10;;;;;;;;;;;;;;;26.58;45.37;100739.66;5085213;28;1984;-38
2021/08/16 12:15:41;;;;;;;;;;;;;;;24.28;50.03;100737.03;5095214;28;1427;-40
2021/08/16 12:18:07;;;;;;;;;;;;;;;25.01;50.57;100728.41;5085441;28;923;-40
2021/08/16 12:20:42;;;;;;;;;;;;;;;26.91;44.76;100733.16;5096925;28;1499;-40
2021/08/16 12:23:07;;;;;;;;;;;;;;;23.87;51.73;100724.28;5090131;28;1321;-40
2021/08/16 12:25:33;;;;;;;;;;;;;;;25.38;49.65;100716.25;5084428;28;1455;-39
2021/08/16 12:27:59;;;;;;;;;;;;;;;27.12;44.60;100724.41;5098339;28;820;-40
2021/08/16 12:30:28;;;;;;;;;;;;;;;23.99;51.14;100720.28;5089008;28;1494;-40
2021/08/16 12:32:53;;;;;;;;;;;;;;;25.62;49.04;100711.81;5081113;28;1913;-39
2021/08/16 12:35:19;;;;;;;;;;;;;;;27.22;44.18;100716.03;5098398;28;1367;-40
2021/08/16 12:37:45;;;;;;;;;;;;;;;23.88;51.72;100710.69;5096724;28;851;-40
2021/08/16 12:40:13;;;;;;;;;;;;;;;26.11;46.90;100709.09;5098338;28;1308;-39
2021/08/16 12:42:38;;;;;;;;;;;;;;;25.72;46.13;100710.78;5085389;28;823;-39
2021/08/16 12:45:07;;;;;;;;;;;;;;;23.67;51.95;100703.06;5093489;28;1254;-34